createdAt,value
2018-09-24T00:01:48.057Z,0.17
2018-09-24T00:04:16.613Z,0.10
2018-09-24T00:06:45.154Z,0.10
2018-09-24T00:09:13.725Z,0.43
2018-09-24T00:11:42.299Z,0.27
2018-09-24T00:14:10.925Z,0.10
2018-09-24T00:16:39.472Z,0.10
2018-09-24T00:19:08.302Z,0.10
2018-09-24T00:21:36.866Z,0.20
2018-09-24T00:24:05.438Z,0.00
2018-09-24T00:26:34.004Z,0.77
2018-09-24T00:29:02.575Z,0.10
2018-09-24T00:31:31.119Z,0.43
2018-09-24T00:33:59.710Z,1.30
2018-09-24T00:36:28.268Z,0.17
2018-09-24T00:38:56.852Z,0.77
2018-09-24T00:41:25.409Z,0.27
2018-09-24T00:43:53.995Z,0.10
2018-09-24T00:46:22.525Z,0.20
2018-09-24T00:48:51.109Z,0.93
2018-09-24T00:51:19.661Z,0.20
2018-09-24T00:53:48.252Z,0.10
2018-09-24T00:56:16.802Z,0.20
2018-09-24T00:58:45.372Z,0.43
2018-09-24T01:01:13.928Z,1.93
2018-09-24T01:03:42.546Z,0.10
2018-09-24T01:06:11.094Z,4.47
2018-09-24T01:08:39.657Z,0.10
2018-09-24T01:11:08.204Z,0.87
2018-09-24T01:13:36.780Z,0.23
2018-09-24T01:16:05.356Z,0.30
2018-09-24T01:18:33.942Z,0.87
2018-09-24T01:21:02.488Z,0.20
2018-09-24T01:23:31.096Z,0.23
2018-09-24T01:25:59.731Z,0.30
2018-09-24T01:28:28.317Z,0.10
2018-09-24T01:30:56.865Z,0.40
2018-09-24T01:33:25.461Z,0.10
2018-09-24T01:35:53.976Z,0.20
2018-09-24T01:38:22.601Z,0.13
2018-09-24T01:40:51.152Z,0.57
2018-09-24T01:43:19.716Z,0.40
2018-09-24T01:45:48.290Z,0.20
2018-09-24T01:48:16.843Z,0.20
2018-09-24T01:50:45.424Z,0.33
2018-09-24T01:53:13.978Z,0.30
2018-09-24T01:55:43.262Z,0.77
2018-09-24T01:58:11.789Z,0.10
2018-09-24T02:00:40.373Z,0.77
2018-09-24T02:03:08.930Z,0.53
2018-09-24T02:05:37.510Z,0.30
2018-09-24T02:08:06.098Z,0.20
2018-09-24T02:10:34.668Z,0.30
2018-09-24T02:13:03.220Z,0.50
2018-09-24T02:15:33.065Z,1.10
2018-09-24T02:18:01.916Z,0.23
2018-09-24T02:20:30.508Z,0.87
2018-09-24T02:22:59.069Z,0.40
2018-09-24T02:25:27.689Z,0.20
2018-09-24T02:27:56.215Z,0.20
2018-09-24T02:30:24.809Z,0.30
2018-09-24T02:32:53.358Z,0.40
2018-09-24T02:35:21.990Z,0.40
2018-09-24T02:37:50.525Z,0.40
2018-09-24T02:40:22.905Z,0.50
2018-09-24T02:42:51.744Z,0.87
2018-09-24T02:45:20.776Z,0.93
2018-09-24T02:47:49.339Z,0.40
2018-09-24T02:50:17.916Z,0.63
2018-09-24T02:52:46.461Z,0.40
2018-09-24T02:55:17.772Z,0.33
2018-09-24T02:57:46.408Z,0.57
2018-09-24T03:00:20.056Z,0.47
2018-09-24T03:02:48.645Z,0.40
2018-09-24T03:05:17.237Z,0.60
2018-09-24T03:07:45.793Z,0.90
2018-09-24T03:10:14.382Z,0.80
2018-09-24T03:12:48.463Z,0.63
2018-09-24T03:15:17.054Z,0.80
2018-09-24T03:17:45.664Z,0.50
2018-09-24T03:20:14.316Z,0.93
2018-09-24T03:22:42.893Z,0.70
2018-09-24T03:25:17.261Z,0.97
2018-09-24T03:27:46.144Z,2.07
2018-09-24T03:30:14.834Z,0.70
2018-09-24T03:32:43.468Z,0.87
2018-09-24T03:35:12.069Z,2.23
2018-09-24T03:37:40.726Z,0.90
2018-09-24T03:40:09.317Z,0.90
2018-09-24T03:42:37.871Z,1.10
2018-09-24T03:45:06.529Z,1.07
2018-09-24T03:47:35.069Z,0.87
2018-09-24T03:50:03.688Z,1.30
2018-09-24T03:52:32.241Z,2.00
2018-09-24T03:55:00.789Z,1.70
2018-09-24T03:57:29.362Z,1.87
2018-09-24T03:59:57.897Z,0.90
2018-09-24T04:02:26.450Z,0.80
2018-09-24T04:05:00.148Z,1.07
2018-09-24T04:07:34.060Z,1.20
2018-09-24T04:10:07.884Z,0.93
2018-09-24T04:12:41.676Z,1.93
2018-09-24T04:15:15.578Z,1.17
2018-09-24T04:17:49.477Z,1.10
2018-09-24T04:20:23.324Z,1.03
2018-09-24T04:22:57.013Z,1.17
2018-09-24T04:25:30.858Z,2.63
2018-09-24T04:28:04.561Z,2.20
2018-09-24T04:30:38.489Z,1.33
2018-09-24T04:33:12.337Z,1.40
2018-09-24T04:35:46.202Z,1.33
2018-09-24T04:38:20.097Z,1.30
2018-09-24T04:40:53.952Z,1.30
2018-09-24T04:43:27.868Z,1.57
2018-09-24T04:46:01.698Z,1.20
2018-09-24T04:48:35.409Z,1.30
2018-09-24T04:51:09.187Z,1.23
2018-09-24T04:53:42.912Z,1.37
2018-09-24T04:56:16.693Z,3.63
2018-09-24T04:58:50.608Z,4.87
2018-09-24T05:01:24.400Z,1.87
2018-09-24T05:03:58.309Z,1.80
2018-09-24T05:06:32.100Z,1.90
2018-09-24T05:09:05.776Z,1.60
2018-09-24T05:11:39.632Z,1.40
2018-09-24T05:14:13.533Z,2.17
2018-09-24T05:16:47.344Z,1.80
2018-09-24T05:19:21.342Z,1.63
2018-09-24T05:21:55.178Z,3.37
2018-09-24T05:24:28.840Z,1.70
2018-09-24T05:27:02.652Z,1.73
2018-09-24T05:29:36.325Z,3.27
2018-09-24T05:32:10.177Z,2.37
2018-09-24T05:34:44.856Z,1.50
2018-09-24T05:37:18.664Z,2.80
2018-09-24T05:39:52.518Z,1.90
2018-09-24T05:42:26.218Z,2.03
2018-09-24T05:45:00.001Z,1.83
2018-09-24T05:47:33.824Z,2.40
2018-09-24T05:50:08.319Z,3.13
2018-09-24T05:52:42.327Z,3.30
2018-09-24T05:55:16.236Z,2.00
2018-09-24T05:57:50.136Z,1.50
2018-09-24T06:00:24.117Z,3.13
2018-09-24T06:02:58.416Z,2.23
2018-09-24T06:05:32.693Z,1.90
2018-09-24T06:08:06.575Z,2.70
2018-09-24T06:10:40.490Z,2.13
2018-09-24T06:13:14.414Z,3.63
2018-09-24T06:15:48.288Z,3.10
2018-09-24T06:18:22.104Z,2.77
2018-09-24T06:20:55.917Z,2.43
2018-09-24T06:23:29.797Z,1.57
2018-09-24T06:26:03.702Z,1.90
2018-09-24T06:28:37.549Z,3.53
2018-09-24T06:31:11.465Z,5.83
2018-09-24T06:33:45.460Z,4.07
2018-09-24T06:36:19.350Z,1.23
2018-09-24T06:38:53.177Z,2.53
2018-09-24T06:41:27.007Z,1.87
2018-09-24T06:44:00.881Z,1.50
2018-09-24T06:46:34.757Z,2.63
2018-09-24T06:49:08.815Z,1.37
2018-09-24T06:51:42.667Z,0.97
2018-09-24T06:54:16.481Z,1.27
2018-09-24T06:56:50.213Z,1.30
2018-09-24T06:59:24.020Z,2.10
2018-09-24T07:01:57.824Z,2.07
2018-09-24T07:04:32.126Z,1.50
2018-09-24T07:07:05.973Z,3.13
2018-09-24T07:09:39.890Z,3.23
2018-09-24T07:12:13.647Z,1.67
2018-09-24T07:14:47.596Z,1.43
2018-09-24T07:17:21.308Z,1.90
2018-09-24T07:19:55.027Z,1.87
2018-09-24T07:22:28.870Z,1.52
2018-09-24T07:25:02.662Z,1.55
2018-09-24T07:27:36.464Z,3.58
2018-09-24T07:30:10.426Z,2.17
2018-09-24T07:32:44.186Z,3.15
2018-09-24T07:35:17.933Z,2.83
2018-09-24T07:37:51.826Z,1.27
2018-09-24T07:40:25.873Z,3.05
2018-09-24T07:42:59.692Z,2.05
2018-09-24T07:45:33.482Z,1.73
2018-09-24T07:48:07.362Z,1.20
2018-09-24T07:50:41.726Z,3.00
2018-09-24T07:53:15.561Z,2.27
2018-09-24T07:55:49.489Z,4.83
2018-09-24T07:58:23.701Z,2.03
2018-09-24T08:00:57.722Z,2.77
2018-09-24T08:03:32.184Z,1.33
2018-09-24T08:06:19.971Z,3.07
2018-09-24T08:09:11.139Z,5.67
2018-09-24T08:11:46.628Z,2.30
2018-09-24T08:14:41.327Z,10.37
2018-09-24T08:17:29.355Z,6.33
2018-09-24T08:20:04.544Z,5.57
2018-09-24T08:22:39.459Z,3.27
2018-09-24T08:25:14.211Z,9.27
2018-09-24T08:27:49.805Z,10.33
2018-09-24T08:30:24.208Z,5.83
2018-09-24T08:32:58.795Z,5.53
2018-09-24T08:35:32.909Z,6.00
2018-09-24T08:38:06.929Z,7.47
2018-09-24T08:40:40.636Z,13.23
2018-09-24T08:43:15.760Z,11.60
2018-09-24T08:45:50.461Z,8.30
2018-09-24T08:48:24.264Z,8.07
2018-09-24T08:50:58.177Z,5.90
2018-09-24T08:53:32.201Z,5.80
2018-09-24T08:56:06.084Z,3.87
2018-09-24T08:58:39.801Z,2.47
2018-09-24T09:01:13.705Z,1.93
2018-09-24T09:03:47.620Z,3.10
2018-09-24T09:06:28.577Z,6.00
2018-09-24T09:09:02.256Z,3.47
2018-09-24T09:11:36.064Z,17.47
2018-09-24T09:14:09.924Z,6.20
2018-09-24T09:16:43.692Z,5.47
2018-09-24T09:19:17.408Z,9.77
2018-09-24T09:21:51.302Z,3.20
2018-09-24T09:24:25.136Z,2.47
2018-09-24T09:26:58.977Z,2.87
2018-09-24T09:29:32.967Z,2.83
2018-09-24T09:32:06.801Z,2.80
2018-09-24T09:34:40.697Z,2.33
2018-09-24T09:37:14.483Z,1.60
2018-09-24T09:39:48.260Z,1.37
2018-09-24T09:42:22.028Z,1.83
2018-09-24T09:44:55.855Z,2.40
2018-09-24T09:47:29.841Z,3.90
2018-09-24T09:50:03.709Z,1.37
2018-09-24T09:52:37.570Z,2.67
2018-09-24T09:55:11.377Z,3.97
2018-09-24T09:57:45.174Z,3.37
2018-09-24T10:00:19.037Z,1.93
2018-09-24T10:02:52.580Z,2.77
2018-09-24T10:05:26.365Z,1.90
2018-09-24T10:08:00.078Z,2.53
2018-09-24T10:10:33.858Z,1.43
2018-09-24T10:13:07.557Z,2.80
2018-09-24T10:15:41.509Z,2.33
2018-09-24T10:18:15.312Z,2.80
2018-09-24T10:20:49.159Z,3.60
2018-09-24T10:23:22.960Z,3.70
2018-09-24T10:25:56.827Z,4.07
2018-09-24T10:28:30.672Z,3.30
2018-09-24T10:31:04.399Z,3.87
2018-09-24T10:33:38.449Z,2.30
2018-09-24T10:36:12.393Z,3.20
2018-09-24T10:38:46.180Z,3.70
2018-09-24T10:41:20.033Z,2.60
2018-09-24T10:43:53.713Z,1.62
2018-09-24T10:46:27.483Z,3.10
2018-09-24T10:49:01.331Z,3.58
2018-09-24T10:51:35.224Z,2.10
2018-09-24T10:54:08.900Z,1.62
2018-09-24T10:56:42.777Z,3.05
2018-09-24T10:59:16.821Z,1.72
2018-09-24T11:01:50.572Z,2.05
2018-09-24T11:04:24.357Z,2.35
2018-09-24T11:06:58.110Z,2.40
2018-09-24T11:09:31.869Z,2.17
2018-09-24T11:12:05.668Z,1.55
2018-09-24T11:14:39.618Z,3.33
2018-09-24T11:17:13.678Z,1.47
2018-09-24T11:19:47.336Z,4.37
2018-09-24T11:22:21.246Z,2.97
2018-09-24T11:24:55.109Z,2.93
2018-09-24T11:27:28.949Z,2.60
2018-09-24T11:30:04.579Z,2.93
2018-09-24T11:32:39.236Z,1.40
2018-09-24T11:35:13.088Z,1.43
2018-09-24T11:37:46.957Z,2.27
2018-09-24T11:40:22.970Z,1.50
2018-09-24T11:42:56.732Z,3.43
2018-09-24T11:45:30.597Z,1.80
2018-09-24T11:48:04.583Z,1.90
2018-09-24T11:50:38.448Z,1.63
2018-09-24T11:53:12.357Z,1.40
2018-09-24T11:55:46.168Z,1.60
2018-09-24T11:58:20.297Z,2.80
2018-09-24T12:00:54.053Z,2.30
2018-09-24T12:03:28.000Z,3.83
2018-09-24T12:06:01.762Z,1.63
2018-09-24T12:08:35.605Z,2.43
2018-09-24T12:11:09.354Z,2.03
2018-09-24T12:13:43.165Z,1.50
2018-09-24T12:16:16.962Z,3.07
2018-09-24T12:18:50.774Z,1.43
2018-09-24T12:21:24.564Z,2.10
2018-09-24T12:23:58.530Z,2.67
2018-09-24T12:26:32.433Z,1.57
2018-09-24T12:29:06.274Z,2.07
2018-09-24T12:31:40.066Z,2.07
2018-09-24T12:34:13.754Z,3.23
2018-09-24T12:36:47.576Z,2.20
2018-09-24T12:39:21.609Z,4.50
2018-09-24T12:41:55.490Z,3.30
2018-09-24T12:44:29.349Z,1.43
2018-09-24T12:47:03.125Z,2.60
2018-09-24T12:49:37.034Z,4.33
2018-09-24T12:52:10.906Z,2.50
2018-09-24T12:54:44.850Z,2.33
2018-09-24T12:57:18.583Z,3.27
2018-09-24T12:59:52.456Z,1.20
2018-09-24T13:02:26.454Z,1.93
2018-09-24T13:05:00.374Z,2.13
2018-09-24T13:07:34.233Z,3.40
2018-09-24T13:10:08.197Z,1.63
2018-09-24T13:12:42.047Z,1.70
2018-09-24T13:15:15.829Z,2.93
2018-09-24T13:17:49.484Z,1.03
2018-09-24T13:20:23.452Z,1.47
2018-09-24T13:22:57.385Z,1.13
2018-09-24T13:25:31.205Z,2.03
2018-09-24T13:28:04.972Z,3.63
2018-09-24T13:30:38.772Z,1.83
2018-09-24T13:33:12.732Z,1.87
2018-09-24T13:35:46.552Z,2.30
2018-09-24T13:38:20.342Z,3.70
2018-09-24T13:40:53.964Z,3.83
2018-09-24T13:43:27.733Z,4.67
2018-09-24T13:46:01.683Z,1.73
2018-09-24T13:48:35.562Z,4.23
2018-09-24T13:51:09.633Z,1.57
2018-09-24T13:53:43.569Z,1.83
2018-09-24T13:56:17.537Z,1.73
2018-09-24T13:58:51.505Z,1.23
2018-09-24T14:01:25.462Z,1.30
2018-09-24T14:03:59.303Z,3.37
2018-09-24T14:06:34.214Z,2.23
2018-09-24T14:09:07.930Z,1.30
2018-09-24T14:11:41.674Z,3.13
2018-09-24T14:14:15.559Z,2.27
2018-09-24T14:16:50.208Z,1.70
2018-09-24T14:19:24.084Z,1.20
2018-09-24T14:21:57.856Z,2.93
2018-09-24T14:24:31.802Z,1.67
2018-09-24T14:27:07.073Z,2.93
2018-09-24T14:29:40.860Z,1.73
2018-09-24T14:32:14.804Z,2.57
2018-09-24T14:34:48.978Z,1.93
2018-09-24T14:37:26.045Z,2.43
2018-09-24T14:39:59.861Z,1.53
2018-09-24T14:42:34.057Z,3.03
2018-09-24T14:45:07.937Z,3.47
2018-09-24T14:47:42.865Z,3.13
2018-09-24T14:50:16.625Z,2.50
2018-09-24T14:52:51.621Z,2.47
2018-09-24T14:55:25.997Z,4.97
2018-09-24T14:58:00.146Z,2.70
2018-09-24T15:00:34.326Z,4.83
2018-09-24T15:03:08.503Z,1.80
2018-09-24T15:05:42.623Z,3.07
2018-09-24T15:08:16.461Z,4.27
2018-09-24T15:10:50.316Z,1.80
2018-09-24T15:13:24.188Z,1.73
2018-09-24T15:15:58.107Z,3.17
2018-09-24T15:18:31.972Z,2.30
2018-09-24T15:21:05.952Z,3.90
2018-09-24T15:23:39.762Z,1.47
2018-09-24T15:26:13.643Z,3.27
2018-09-24T15:28:47.645Z,3.27
2018-09-24T15:31:21.433Z,3.40
2018-09-24T15:33:55.248Z,3.57
2018-09-24T15:36:29.194Z,2.40
2018-09-24T15:39:03.004Z,3.77
2018-09-24T15:41:36.985Z,2.93
2018-09-24T15:44:10.848Z,1.77
2018-09-24T15:46:44.693Z,3.37
2018-09-24T15:49:18.582Z,2.83
2018-09-24T15:51:52.370Z,3.57
2018-09-24T15:54:26.327Z,2.73
2018-09-24T15:57:00.045Z,3.57
2018-09-24T15:59:33.709Z,3.27
2018-09-24T16:02:07.646Z,2.23
2018-09-24T16:04:41.356Z,2.77
2018-09-24T16:07:15.153Z,3.47
2018-09-24T16:09:48.909Z,4.10
2018-09-24T16:12:22.845Z,3.57
2018-09-24T16:14:56.677Z,2.93
2018-09-24T16:17:30.586Z,3.50
2018-09-24T16:20:04.466Z,2.07
2018-09-24T16:22:38.284Z,4.17
2018-09-24T16:25:12.030Z,3.53
2018-09-24T16:27:46.022Z,3.47
2018-09-24T16:30:21.016Z,3.30
2018-09-24T16:32:54.715Z,4.43
2018-09-24T16:35:28.930Z,5.03
2018-09-24T16:38:02.735Z,5.47
2018-09-24T16:40:36.507Z,4.67
2018-09-24T16:43:10.361Z,6.10
2018-09-24T16:45:44.065Z,6.20
2018-09-24T16:48:17.887Z,5.20
2018-09-24T16:50:51.669Z,3.90
2018-09-24T16:53:25.465Z,3.30
2018-09-24T16:55:59.348Z,4.53
2018-09-24T16:58:41.240Z,2.63
2018-09-24T17:01:15.075Z,2.80
2018-09-24T17:03:49.367Z,3.77
2018-09-24T17:06:23.730Z,2.40
2018-09-24T17:08:57.575Z,4.87
2018-09-24T17:11:32.860Z,2.73
2018-09-24T17:14:06.720Z,3.07
2018-09-24T17:16:40.656Z,3.33
2018-09-24T17:19:15.614Z,2.43
2018-09-24T17:21:49.450Z,4.73
2018-09-24T17:24:23.376Z,2.10
2018-09-24T17:27:00.713Z,3.80
2018-09-24T17:29:34.465Z,2.23
2018-09-24T17:32:09.177Z,2.17
2018-09-24T17:34:43.082Z,2.53
2018-09-24T17:37:17.298Z,3.40
2018-09-24T17:39:51.313Z,5.37
2018-09-24T17:42:25.059Z,1.80
2018-09-24T17:44:59.412Z,2.90
2018-09-24T17:47:41.548Z,4.83
2018-09-24T17:52:55.580Z,5.00
2018-09-24T17:55:29.516Z,3.43
2018-09-24T17:58:03.444Z,1.77
2018-09-24T18:00:37.297Z,3.57
2018-09-24T18:03:11.492Z,2.53
2018-09-24T18:05:46.469Z,2.47
2018-09-24T18:08:20.710Z,2.10
2018-09-24T18:10:54.807Z,3.10
2018-09-24T18:13:28.758Z,4.00
2018-09-24T18:16:08.699Z,3.63
2018-09-24T18:18:42.673Z,2.40
2018-09-24T18:21:17.141Z,3.47
2018-09-24T18:23:51.222Z,3.20
2018-09-24T18:26:25.876Z,2.83
2018-09-24T18:29:00.085Z,2.57
2018-09-24T18:31:34.010Z,2.20
2018-09-24T18:34:07.939Z,4.30
2018-09-24T18:36:41.868Z,5.43
2018-09-24T18:39:15.846Z,3.03
2018-09-24T18:41:49.657Z,3.40
2018-09-24T18:44:23.382Z,2.03
2018-09-24T18:46:57.420Z,2.90
2018-09-24T18:49:31.162Z,4.20
2018-09-24T18:52:04.935Z,3.47
2018-09-24T18:54:38.689Z,2.57
2018-09-24T18:57:12.536Z,4.10
2018-09-24T18:59:46.401Z,3.77
2018-09-24T19:02:20.167Z,4.13
2018-09-24T19:04:53.963Z,3.53
2018-09-24T19:07:27.607Z,4.40
2018-09-24T19:10:01.498Z,4.13
2018-09-24T19:12:36.992Z,4.33
2018-09-24T19:15:10.828Z,3.67
2018-09-24T19:17:44.725Z,2.20
2018-09-24T19:20:18.488Z,4.13
2018-09-24T19:22:52.245Z,4.13
2018-09-24T19:25:25.977Z,3.93
2018-09-24T19:27:59.848Z,2.63
2018-09-24T19:30:33.655Z,4.97
2018-09-24T19:33:07.357Z,4.43
2018-09-24T19:35:41.021Z,3.07
2018-09-24T19:38:14.777Z,4.33
2018-09-24T19:40:48.674Z,2.37
2018-09-24T19:43:22.508Z,3.20
2018-09-24T19:45:56.360Z,2.97
2018-09-24T19:48:30.138Z,3.83
2018-09-24T19:51:04.021Z,4.20
2018-09-24T19:53:38.468Z,4.40
2018-09-24T19:56:12.331Z,3.23
2018-09-24T19:58:47.071Z,3.03
2018-09-24T20:01:20.914Z,4.27
2018-09-24T20:03:54.693Z,3.30
2018-09-24T20:06:28.483Z,5.03
2018-09-24T20:09:02.230Z,7.37
2018-09-24T20:11:36.125Z,3.77
2018-09-24T20:14:10.078Z,2.60
2018-09-24T20:16:43.978Z,3.90
2018-09-24T20:19:17.763Z,2.67
2018-09-24T20:21:51.485Z,4.97
2018-09-24T20:24:25.371Z,5.13
2018-09-24T20:26:59.164Z,2.60
2018-09-24T20:29:32.969Z,3.77
2018-09-24T20:32:06.547Z,3.17
2018-09-24T20:34:40.665Z,4.87
2018-09-24T20:37:14.333Z,4.23
2018-09-24T20:39:48.183Z,4.20
2018-09-24T20:42:21.870Z,3.77
2018-09-24T20:44:55.692Z,3.40
2018-09-24T20:47:29.608Z,4.17
2018-09-24T20:50:03.225Z,3.10
2018-09-24T20:52:36.994Z,2.43
2018-09-24T20:55:13.128Z,4.03
2018-09-24T20:57:46.846Z,3.87
2018-09-24T21:00:20.787Z,4.80
2018-09-24T21:02:54.433Z,2.70
2018-09-24T21:05:28.204Z,2.70
2018-09-24T21:08:02.111Z,3.60
2018-09-24T21:10:35.830Z,5.97
2018-09-24T21:13:09.647Z,5.17
2018-09-24T21:15:43.421Z,2.70
2018-09-24T21:18:17.199Z,4.23
2018-09-24T21:20:50.949Z,4.20
2018-09-24T21:23:24.568Z,4.97
2018-09-24T21:25:58.387Z,4.00
2018-09-24T21:28:32.071Z,3.50
2018-09-24T21:31:05.908Z,4.77
2018-09-24T21:33:40.061Z,4.73
2018-09-24T21:36:13.806Z,4.20
2018-09-24T21:38:48.570Z,3.53
2018-09-24T21:41:22.504Z,4.07
2018-09-24T21:43:56.426Z,4.53
2018-09-24T21:46:30.263Z,4.30
2018-09-24T21:49:04.011Z,4.83
2018-09-24T21:51:37.881Z,2.80
2018-09-24T21:54:11.733Z,3.20
2018-09-24T21:56:45.566Z,4.33
2018-09-24T21:59:19.360Z,4.30
2018-09-24T22:01:53.025Z,4.17
2018-09-24T22:04:26.710Z,2.50
2018-09-24T22:07:00.436Z,2.60
2018-09-24T22:09:34.172Z,3.60
2018-09-24T22:12:08.031Z,3.03
2018-09-24T22:14:41.937Z,3.60
2018-09-24T22:17:15.786Z,2.83
2018-09-24T22:19:49.707Z,4.87
2018-09-24T22:22:23.459Z,3.20
2018-09-24T22:24:57.349Z,3.27
2018-09-24T22:27:31.192Z,3.10
2018-09-24T22:30:04.996Z,4.37
2018-09-24T22:32:38.726Z,3.00
2018-09-24T22:35:12.550Z,3.67
2018-09-24T22:37:46.336Z,5.30
2018-09-24T22:40:20.045Z,3.40
2018-09-24T22:42:53.853Z,3.87
2018-09-24T22:45:27.729Z,3.80
2018-09-24T22:48:02.493Z,5.17
2018-09-24T22:50:36.281Z,3.40
2018-09-24T22:53:10.023Z,4.83
2018-09-24T22:55:43.861Z,3.30
2018-09-24T22:58:17.855Z,3.77
2018-09-24T23:00:51.661Z,2.70
2018-09-24T23:03:26.240Z,3.67
2018-09-24T23:06:00.789Z,2.70
2018-09-24T23:08:34.803Z,3.23
2018-09-24T23:11:08.673Z,4.07
2018-09-24T23:13:42.449Z,2.43
2018-09-24T23:16:17.066Z,1.93
2018-09-24T23:18:50.853Z,1.80
2018-09-24T23:21:24.669Z,2.57
2018-09-24T23:23:58.927Z,3.10
2018-09-24T23:26:32.961Z,2.07
2018-09-24T23:29:06.819Z,2.30
2018-09-24T23:31:40.730Z,2.67
2018-09-24T23:34:14.448Z,3.80
2018-09-24T23:36:49.064Z,2.77
2018-09-24T23:39:22.958Z,1.70
2018-09-24T23:41:57.447Z,3.53
2018-09-24T23:44:31.511Z,2.23
2018-09-24T23:47:05.201Z,1.97
2018-09-24T23:49:39.180Z,3.03
2018-09-24T23:52:12.997Z,1.47
2018-09-24T23:54:46.845Z,1.80
2018-09-24T23:57:20.737Z,3.27
2018-09-24T23:59:54.569Z,2.50
